Time;durP1;ratioP1;P1;durP2;ratioP2;P2;SDS_P1;SDS_P2;PMS_P1;PMS_P2;Temp;Humidity;BMP_temperature;BMP_pressure;BME280_temperature;BME280_humidity;BME280_pressure;Samples;Min_cycle;Max_cycle;Signal;HPM_P1;HPM_P2
2024/01/14 00:02:25;;;;;;;7.00;6.67;;;;;;;;;;10526916;28;20090;-74
2024/01/14 00:07:25;;;;;;;8.00;7.40;;;;;;;;;;10529058;28;20019;-75
2024/01/14 00:12:26;;;;;;;7.90;5.38;;;;;;;;;;10534559;28;20015;-75
2024/01/14 00:17:26;;;;;;;12.45;9.95;;;;;;;;;;10536884;28;20332;-74
2024/01/14 00:22:26;;;;;;;8.57;3.10;;;;;;;;;;10540489;28;19975;-76
2024/01/14 00:27:26;;;;;;;11.38;6.40;;;;;;;;;;10548231;28;19908;-74
2024/01/14 00:32:26;;;;;;;12.13;9.10;;;;;;;;;;10548417;28;20065;-75
2024/01/14 00:37:27;;;;;;;9.13;4.63;;;;;;;;;;10528623;28;19960;-75
2024/01/14 00:42:27;;;;;;;16.67;14.57;;;;;;;;;;10548109;28;19931;-76
2024/01/14 00:47:30;;;;;;;10.23;5.23;;;;;;;;;;10547739;28;19908;-75
2024/01/14 00:52:32;;;;;;;10.50;5.23;;;;;;;;;;10547799;28;19912;-76
2024/01/14 00:57:33;;;;;;;10.40;3.85;;;;;;;;;;10547498;28;20179;-76
2024/01/14 01:02:33;;;;;;;11.90;4.77;;;;;;;;;;10546907;28;20043;-75
2024/01/14 01:07:34;;;;;;;8.70;3.20;;;;;;;;;;10548095;28;20044;-76
2024/01/14 01:12:34;;;;;;;12.63;5.47;;;;;;;;;;10546739;28;20035;-75
2024/01/14 01:17:34;;;;;;;37.10;12.60;;;;;;;;;;10528778;28;20229;-76
2024/01/14 01:22:35;;;;;;;13.30;5.05;;;;;;;;;;10528016;28;20372;-75
2024/01/14 01:27:35;;;;;;;147.10;27.02;;;;;;;;;;10546882;28;20631;-76
2024/01/14 01:32:35;;;;;;;185.02;25.95;;;;;;;;;;10546288;28;20286;-75
2024/01/14 01:37:35;;;;;;;381.90;44.07;;;;;;;;;;10546011;28;20370;-76
2024/01/14 01:42:36;;;;;;;577.15;61.42;;;;;;;;;;10545737;28;20330;-74
2024/01/14 01:47:36;;;;;;;642.05;95.00;;;;;;;;;;10527652;28;20203;-75
2024/01/14 01:52:37;;;;;;;664.50;182.18;;;;;;;;;;10527332;28;20016;-75
2024/01/14 01:57:37;;;;;;;;;;;;;;;;;;10545428;28;20012;-75
2024/01/14 02:02:37;;;;;;;;;;;;;;;;;;10545581;28;19916;-76
2024/01/14 02:07:37;;;;;;;;;;;;;;;;;;10545435;28;19904;-74
2024/01/14 02:12:37;;;;;;;;;;;;;;;;;;10545761;28;19940;-75
2024/01/14 02:17:37;;;;;;;;;;;;;;;;;;10544826;28;19939;-75
2024/01/14 02:22:37;;;;;;;;;;;;;;;;;;10544672;28;19908;-75
2024/01/14 02:27:37;;;;;;;;;;;;;;;;;;10526163;28;19904;-76
2024/01/14 02:32:38;;;;;;;;;;;;;;;;;;10525484;28;19908;-75
2024/01/14 02:37:43;;;;;;;;;;;;;;;;;;10543092;28;19904;-77
2024/01/14 02:42:43;;;;;;;;;;;;;;;;;;10516701;28;20206;-75
2024/01/14 02:47:43;;;;;;;;;;;;;;;;;;10543565;28;20026;-75
2024/01/14 02:52:43;;;;;;;;;;;;;;;;;;10543750;28;19965;-76
2024/01/14 02:57:43;;;;;;;;;;;;;;;;;;10543719;28;20213;-75
2024/01/14 03:02:44;;;;;;;;;;;;;;;;;;10543092;28;20134;-75
2024/01/14 03:07:44;;;;;;;;;;;;;;;;;;10524438;28;19909;-75
2024/01/14 03:12:44;;;;;;;;;;;;;;;;;;10524722;28;19905;-76
2024/01/14 03:17:44;;;;;;;;;;;;;;;;;;10542777;28;20110;-75
2024/01/14 03:22:44;;;;;;;;;;;;;;;;;;10541879;28;19923;-76
2024/01/14 03:27:44;;;;;;;;;;;;;;;;;;10523618;28;20194;-76
2024/01/14 03:32:44;;;;;;;;;;;;;;;;;;10542148;28;19904;-75
2024/01/14 03:37:45;;;;;;;;;;;;;;;;;;10541730;28;20560;-75
2024/01/14 03:42:45;;;;;;;;;;;;;;;;;;10498122;28;19938;-76
2024/01/14 03:47:45;;;;;;;15.40;14.35;;;;;;;;;;10496243;28;20411;-76
2024/01/14 03:52:45;;;;;;;0.90;0.90;;;;;;;;;;10498995;28;19916;-75
2024/01/14 03:57:45;;;;;;;2.80;1.15;;;;;;;;;;10499153;28;20090;-75
2024/01/14 04:02:46;;;;;;;19.10;17.47;;;;;;;;;;10498890;28;20032;-75
2024/01/14 04:07:46;;;;;;;29.95;13.85;;;;;;;;;;10481040;28;20124;-75
2024/01/14 04:12:46;;;;;;;;;;;;;;;;;;10498720;28;20012;-75
2024/01/14 04:17:47;;;;;;;0.00;0.00;;;;;;;;;;10498550;28;20218;-75
2024/01/14 04:22:47;;;;;;;0.85;0.85;;;;;;;;;;10499317;28;20037;-75
2024/01/14 04:27:47;;;;;;;13.00;1.90;;;;;;;;;;10498639;28;20022;-75
2024/01/14 04:32:47;;;;;;;;;;;;;;;;;;10498432;28;19907;-75
2024/01/14 04:37:47;;;;;;;;;;;;;;;;;;10498275;28;20032;-75
2024/01/14 04:42:47;;;;;;;27.90;5.80;;;;;;;;;;10526641;28;20007;-74
2024/01/14 04:47:48;;;;;;;573.88;72.45;;;;;;;;;;10540078;28;20053;-75
2024/01/14 04:52:48;;;;;;;374.30;83.30;;;;;;;;;;10539649;28;20341;-74
2024/01/14 04:57:48;;;;;;;186.27;31.38;;;;;;;;;;10526195;28;20031;-74
2024/01/14 05:02:48;;;;;;;421.90;203.40;;;;;;;;;;10538899;28;20043;-75
2024/01/14 05:07:49;;;;;;;361.88;246.27;;;;;;;;;;10524383;28;20066;-75
2024/01/14 05:12:49;;;;;;;478.30;320.70;;;;;;;;;;10547300;28;20110;-75
2024/01/14 05:17:49;;;;;;;590.60;320.73;;;;;;;;;;10543740;28;20009;-76
2024/01/14 05:22:49;;;;;;;329.63;227.57;;;;;;;;;;10518150;28;20028;-75
2024/01/14 05:27:50;;;;;;;360.05;234.43;;;;;;;;;;10546473;28;20008;-74
2024/01/14 05:32:50;;;;;;;398.42;242.82;;;;;;;;;;10546265;28;20554;-75
2024/01/14 05:37:50;;;;;;;480.27;311.42;;;;;;;;;;10527753;28;20111;-75
2024/01/14 05:42:50;;;;;;;343.33;45.00;;;;;;;;;;10544950;28;20038;-75
2024/01/14 05:47:51;;;;;;;343.05;258.27;;;;;;;;;;10544704;28;20020;-75
2024/01/14 05:52:51;;;;;;;427.75;262.17;;;;;;;;;;10527419;28;20047;-75
2024/01/14 05:57:51;;;;;;;551.67;317.52;;;;;;;;;;10546489;28;20024;-75
2024/01/14 06:02:51;;;;;;;564.92;313.98;;;;;;;;;;10546116;28;20024;-75
2024/01/14 06:07:52;;;;;;;517.40;329.13;;;;;;;;;;10529323;28;20218;-75
2024/01/14 06:12:52;;;;;;;523.80;303.55;;;;;;;;;;10544790;28;20032;-76
2024/01/14 06:17:52;;;;;;;486.50;292.45;;;;;;;;;;10526497;28;20020;-74
2024/01/14 06:22:52;;;;;;;160.90;26.85;;;;;;;;;;10543659;28;20337;-75
2024/01/14 06:27:53;;;;;;;517.80;318.25;;;;;;;;;;10544132;28;20336;-75
2024/01/14 06:32:56;;;;;;;502.30;285.75;;;;;;;;;;10540542;28;20310;-75
2024/01/14 06:37:56;;;;;;;528.35;288.13;;;;;;;;;;10525790;28;20516;-75
2024/01/14 06:42:57;;;;;;;568.88;307.30;;;;;;;;;;10542243;28;20044;-74
2024/01/14 06:47:57;;;;;;;635.28;329.90;;;;;;;;;;10542916;28;20065;-75
2024/01/14 06:52:57;;;;;;;652.03;330.15;;;;;;;;;;10542918;28;20302;-75
2024/01/14 06:57:57;;;;;;;658.67;327.45;;;;;;;;;;10520010;28;20015;-76
2024/01/14 07:02:57;;;;;;;616.58;192.05;;;;;;;;;;10541926;28;20039;-76
2024/01/14 07:07:58;;;;;;;;;;;;;;;;;;10523846;28;20198;-75
2024/01/14 07:12:59;;;;;;;624.63;336.55;;;;;;;;;;10541202;28;19927;-75
2024/01/14 07:17:59;;;;;;;191.40;30.40;;;;;;;;;;10541928;28;20193;-75
2024/01/14 07:22:59;;;;;;;572.83;66.03;;;;;;;;;;10541623;28;20317;-76
2024/01/14 07:27:59;;;;;;;679.20;345.67;;;;;;;;;;10542412;28;20031;-75
2024/01/14 07:33:00;;;;;;;681.50;364.95;;;;;;;;;;10541834;28;20118;-75
2024/01/14 07:38:00;;;;;;;664.67;350.20;;;;;;;;;;10542069;28;20217;-75
2024/01/14 07:43:01;;;;;;;664.13;375.20;;;;;;;;;;10541087;28;20203;-76
2024/01/14 07:48:02;;;;;;;654.55;366.85;;;;;;;;;;10523430;28;20099;-75
2024/01/14 07:53:02;;;;;;;658.05;357.85;;;;;;;;;;10541335;28;20035;-75
2024/01/14 07:58:02;;;;;;;597.05;336.17;;;;;;;;;;10523663;28;20015;-75
2024/01/14 08:03:03;;;;;;;668.13;324.70;;;;;;;;;;10541106;28;20063;-76
2024/01/14 08:08:03;;;;;;;659.93;341.77;;;;;;;;;;10515913;28;20282;-74
2024/01/14 08:13:04;;;;;;;581.85;314.25;;;;;;;;;;10540904;28;20281;-75
2024/01/14 08:18:04;;;;;;;402.50;295.38;;;;;;;;;;10540224;28;20024;-75
2024/01/14 08:23:05;;;;;;;484.00;288.13;;;;;;;;;;10539798;28;20076;-75
2024/01/14 08:28:05;;;;;;;458.13;300.77;;;;;;;;;;10542861;28;20012;-81
2024/01/14 08:33:05;;;;;;;488.65;322.25;;;;;;;;;;10546916;28;20085;-77
2024/01/14 08:38:06;;;;;;;518.97;344.52;;;;;;;;;;10530844;28;20486;-74
2024/01/14 08:43:06;;;;;;;517.60;332.80;;;;;;;;;;10547581;28;20039;-76
2024/01/14 08:48:06;;;;;;;641.78;353.05;;;;;;;;;;10546361;28;20016;-75
2024/01/14 08:53:07;;;;;;;695.43;386.47;;;;;;;;;;10547506;28;20083;-74
2024/01/14 08:58:07;;;;;;;762.65;437.75;;;;;;;;;;10545658;28;20333;-74
2024/01/14 09:03:07;;;;;;;485.45;159.40;;;;;;;;;;10529288;28;20084;-74
2024/01/14 09:08:08;;;;;;;241.27;43.70;;;;;;;;;;10527582;28;20047;-75
2024/01/14 09:13:08;;;;;;;537.05;108.25;;;;;;;;;;10543524;28;20019;-74
2024/01/14 09:18:08;;;;;;;317.65;36.80;;;;;;;;;;10543444;28;19899;-74
2024/01/14 09:23:08;;;;;;;523.90;59.10;;;;;;;;;;10544091;28;20101;-74
2024/01/14 09:28:08;;;;;;;582.40;62.90;;;;;;;;;;10527350;28;20020;-74
2024/01/14 09:33:09;;;;;;;587.72;63.50;;;;;;;;;;10545889;28;20043;-74
2024/01/14 09:38:09;;;;;;;666.15;73.15;;;;;;;;;;10545530;28;20075;-74
2024/01/14 09:43:11;;;;;;;693.08;78.32;;;;;;;;;;10544586;28;20044;-74
2024/01/14 09:48:15;;;;;;;716.75;92.53;;;;;;;;;;10545439;28;20027;-74
2024/01/14 09:53:15;;;;;;;810.65;410.77;;;;;;;;;;10545295;28;20028;-74
2024/01/14 09:58:16;;;;;;;759.22;179.55;;;;;;;;;;10537934;28;20028;-75
2024/01/14 10:03:16;;;;;;;762.55;235.43;;;;;;;;;;10542565;28;20184;-75
2024/01/14 10:08:17;;;;;;;355.70;45.75;;;;;;;;;;10545242;28;20024;-74
2024/01/14 10:13:17;;;;;;;305.63;38.87;;;;;;;;;;10533286;28;20053;-78
2024/01/14 10:18:17;;;;;;;510.00;131.35;;;;;;;;;;10533588;28;20322;-82
2024/01/14 10:23:17;;;;;;;;;;;;;;;;;;10535505;28;20026;-77
2024/01/14 10:28:18;;;;;;;50.35;15.35;;;;;;;;;;10532059;28;20315;-81
2024/01/14 10:33:18;;;;;;;335.50;39.60;;;;;;;;;;10536376;28;19907;-79
2024/01/14 10:38:22;;;;;;;69.60;11.90;;;;;;;;;;10532423;28;20058;-74
2024/01/14 10:43:26;;;;;;;9.10;3.00;;;;;;;;;;10530381;28;20263;-76
2024/01/14 10:48:26;;;;;;;;;;;;;;;;;;10530594;28;19920;-74
2024/01/14 10:53:26;;;;;;;;;;;;;;;;;;10532021;28;20299;-75
2024/01/14 10:58:27;;;;;;;811.92;633.53;;;;;;;;;;10510611;28;20406;-75
2024/01/14 11:03:28;;;;;;;570.10;70.70;;;;;;;;;;10529333;28;20340;-75
2024/01/14 11:08:28;;;;;;;504.95;61.50;;;;;;;;;;10530205;28;20340;-75
2024/01/14 11:13:35;;;;;;;458.20;55.47;;;;;;;;;;10510258;28;20084;-76
2024/01/14 11:18:39;;;;;;;180.60;28.75;;;;;;;;;;10529255;28;20018;-75
2024/01/14 11:23:40;;;;;;;167.75;26.58;;;;;;;;;;10529975;28;19970;-75
2024/01/14 11:28:40;;;;;;;;;;;;;;;;;;10529866;28;20008;-76
2024/01/14 11:33:42;;;;;;;;;;;;;;;;;;10530178;28;19900;-75
2024/01/14 11:38:42;;;;;;;;;;;;;;;;;;10530438;28;19919;-75
2024/01/14 11:43:42;;;;;;;;;;;;;;;;;;10510373;28;20230;-77
2024/01/14 11:48:42;;;;;;;;;;;;;;;;;;10511155;28;19985;-77
2024/01/14 11:53:42;;;;;;;;;;;;;;;;;;10529805;28;19919;-77
2024/01/14 11:58:42;;;;;;;;;;;;;;;;;;10531629;28;19934;-77
2024/01/14 12:03:42;;;;;;;1199.30;999.90;;;;;;;;;;10525849;28;20842;-76
2024/01/14 12:08:43;;;;;;;1084.68;977.72;;;;;;;;;;10525827;28;21179;-81
2024/01/14 12:13:43;;;;;;;895.20;798.00;;;;;;;;;;10527138;28;20019;-74
2024/01/14 12:18:44;;;;;;;833.97;658.95;;;;;;;;;;10526181;28;20087;-73
2024/01/14 12:23:47;;;;;;;819.83;632.03;;;;;;;;;;10527917;28;20051;-73
2024/01/14 12:28:47;;;;;;;816.65;589.33;;;;;;;;;;10527981;28;20012;-72
2024/01/14 12:33:48;;;;;;;669.53;254.25;;;;;;;;;;10528075;28;20008;-72
2024/01/14 12:38:48;;;;;;;722.97;414.02;;;;;;;;;;10509993;28;20024;-72
2024/01/14 12:43:49;;;;;;;784.37;543.93;;;;;;;;;;10527344;28;20040;-72
2024/01/14 12:48:49;;;;;;;732.13;519.47;;;;;;;;;;10527175;28;20270;-72
2024/01/14 12:53:54;;;;;;;692.80;333.88;;;;;;;;;;10527723;28;20234;-73
2024/01/14 12:58:54;;;;;;;622.53;77.05;;;;;;;;;;10510224;28;20036;-71
2024/01/14 13:03:54;;;;;;;751.67;457.98;;;;;;;;;;10506452;28;20046;-72
2024/01/14 13:08:55;;;;;;;714.47;357.83;;;;;;;;;;10525698;28;20201;-72
2024/01/14 13:13:57;;;;;;;587.38;134.98;;;;;;;;;;10525179;28;20020;-72
2024/01/14 13:18:57;;;;;;;573.75;72.07;;;;;;;;;;10529745;28;20186;-72
2024/01/14 13:23:58;;;;;;;537.10;62.30;;;;;;;;;;10534452;28;20020;-72
2024/01/14 13:28:58;;;;;;;700.20;279.85;;;;;;;;;;10534417;28;20008;-72
2024/01/14 13:33:58;;;;;;;591.13;92.18;;;;;;;;;;10533432;28;20087;-73
2024/01/14 13:39:01;;;;;;;762.50;439.50;;;;;;;;;;10515393;28;20015;-72
2024/01/14 13:44:01;;;;;;;776.67;466.30;;;;;;;;;;10532921;28;20036;-71
2024/01/14 13:49:01;;;;;;;763.88;428.30;;;;;;;;;;10533214;28;20020;-72
2024/01/14 13:54:02;;;;;;;740.85;389.33;;;;;;;;;;10533413;28;20026;-72
2024/01/14 13:59:02;;;;;;;789.15;464.85;;;;;;;;;;10533276;28;20224;-72
2024/01/14 14:04:02;;;;;;;704.65;314.33;;;;;;;;;;10532584;28;20024;-73
2024/01/14 14:09:03;;;;;;;775.72;469.13;;;;;;;;;;10532833;28;20049;-72
2024/01/14 14:14:03;;;;;;;783.72;455.38;;;;;;;;;;10532402;28;20008;-72
2024/01/14 14:19:03;;;;;;;765.03;439.13;;;;;;;;;;10514130;28;20028;-72
2024/01/14 14:24:04;;;;;;;786.00;481.17;;;;;;;;;;10531221;28;20028;-73
2024/01/14 14:29:05;;;;;;;784.38;492.15;;;;;;;;;;10531004;28;20043;-72
2024/01/14 14:34:05;;;;;;;787.70;489.13;;;;;;;;;;10513987;28;20318;-72
2024/01/14 14:39:05;;;;;;;525.95;74.50;;;;;;;;;;10531291;28;20360;-73
2024/01/14 14:44:07;;;;;;;783.35;468.63;;;;;;;;;;10530507;28;20044;-72
2024/01/14 14:49:08;;;;;;;803.78;527.03;;;;;;;;;;10543955;28;20135;-72
2024/01/14 14:54:08;;;;;;;792.90;475.52;;;;;;;;;;10529938;28;20012;-73
2024/01/14 14:59:08;;;;;;;781.00;459.20;;;;;;;;;;10530334;28;20318;-72
2024/01/14 15:04:09;;;;;;;792.72;487.15;;;;;;;;;;10530453;28;20329;-73
2024/01/14 15:09:09;;;;;;;788.60;471.67;;;;;;;;;;10529686;28;20265;-72
2024/01/14 15:14:10;;;;;;;793.38;488.98;;;;;;;;;;10511465;28;20327;-72
2024/01/14 15:19:10;;;;;;;768.60;426.27;;;;;;;;;;10511890;28;20020;-73
2024/01/14 15:24:10;;;;;;;496.98;104.75;;;;;;;;;;10529317;28;20051;-73
2024/01/14 15:29:10;;;;;;;581.22;64.75;;;;;;;;;;10528326;28;20309;-73
2024/01/14 15:34:11;;;;;;;559.55;62.15;;;;;;;;;;10529592;28;20015;-72
2024/01/14 15:39:11;;;;;;;734.15;301.58;;;;;;;;;;10529137;28;20020;-74
2024/01/14 15:44:11;;;;;;;680.10;153.18;;;;;;;;;;10509630;28;20047;-75
2024/01/14 15:49:12;;;;;;;564.78;64.75;;;;;;;;;;10529937;28;20047;-75
2024/01/14 15:54:12;;;;;;;507.65;56.58;;;;;;;;;;10531012;28;20056;-80
2024/01/14 15:59:12;;;;;;;;;;;;;;;;;;10534501;28;20317;-81
2024/01/14 16:04:12;;;;;;;;;;;;;;;;;;10530135;28;20265;-77
2024/01/14 16:09:13;;;;;;;184.30;26.93;;;;;;;;;;10528016;28;19904;-78
2024/01/14 16:14:13;;;;;;;683.08;155.57;;;;;;;;;;10528878;28;20081;-72
2024/01/14 16:19:13;;;;;;;474.63;56.95;;;;;;;;;;10527915;28;20241;-73
2024/01/14 16:24:13;;;;;;;678.30;251.95;;;;;;;;;;10528096;28;20246;-73
2024/01/14 16:29:13;;;;;;;;;;;;;;;;;;10526851;28;20063;-74
2024/01/14 16:34:14;;;;;;;;;;;;;;;;;;10527419;28;19908;-73
2024/01/14 16:39:14;;;;;;;134.70;24.50;;;;;;;;;;10509761;28;19989;-73
2024/01/14 16:44:14;;;;;;;163.70;25.25;;;;;;;;;;10509655;28;19916;-78
2024/01/14 16:49:15;;;;;;;766.30;366.20;;;;;;;;;;10508938;28;20337;-73
2024/01/14 16:54:15;;;;;;;;;;;;;;;;;;10532906;28;19945;-73
2024/01/14 16:59:16;;;;;;;169.10;19.50;;;;;;;;;;10533511;28;19931;-73
2024/01/14 17:04:16;;;;;;;242.27;27.70;;;;;;;;;;10512176;28;20281;-72
2024/01/14 17:09:16;;;;;;;;;;;;;;;;;;10530838;28;20024;-86
2024/01/14 17:14:16;;;;;;;218.80;34.95;;;;;;;;;;10531318;28;20020;-76
2024/01/14 17:19:17;;;;;;;505.67;75.43;;;;;;;;;;10530451;28;20035;-76
2024/01/14 17:24:17;;;;;;;524.63;60.30;;;;;;;;;;10530334;28;20035;-73
2024/01/14 17:29:20;;;;;;;575.08;66.00;;;;;;;;;;10529161;28;20032;-74
2024/01/14 17:34:21;;;;;;;582.38;66.00;;;;;;;;;;10513034;28;20096;-75
2024/01/14 17:39:21;;;;;;;546.30;60.47;;;;;;;;;;10529058;28;20016;-75
2024/01/14 17:44:22;;;;;;;460.73;53.75;;;;;;;;;;10509674;28;20301;-74
2024/01/14 17:49:22;;;;;;;470.55;54.60;;;;;;;;;;10528242;28;20031;-74
2024/01/14 17:54:22;;;;;;;603.90;69.70;;;;;;;;;;10529893;28;20016;-76
2024/01/14 17:59:23;;;;;;;529.45;59.40;;;;;;;;;;10530263;28;20611;-73
2024/01/14 18:04:23;;;;;;;496.05;55.28;;;;;;;;;;10532061;28;20012;-74
2024/01/14 18:09:23;;;;;;;475.08;53.95;;;;;;;;;;10533390;28;20012;-77
2024/01/14 18:14:23;;;;;;;592.33;71.13;;;;;;;;;;10532535;28;20326;-73
2024/01/14 18:19:24;;;;;;;548.28;60.20;;;;;;;;;;10514539;28;20035;-75
2024/01/14 18:24:24;;;;;;;457.48;53.30;;;;;;;;;;10532854;28;20018;-76
2024/01/14 18:29:25;;;;;;;377.10;46.60;;;;;;;;;;10533089;28;20119;-73
2024/01/14 18:34:26;;;;;;;83.50;17.70;;;;;;;;;;10531602;28;20113;-75
2024/01/14 18:39:26;;;;;;;120.23;23.40;;;;;;;;;;10534461;28;20049;-76
2024/01/14 18:44:28;;;;;;;95.38;18.08;;;;;;;;;;10530607;28;20198;-76
2024/01/14 18:49:29;;;;;;;38.40;7.38;;;;;;;;;;10531630;28;20220;-79
2024/01/14 18:54:29;;;;;;;548.38;61.55;;;;;;;;;;10531891;28;20123;-77
2024/01/14 18:59:29;;;;;;;642.50;92.15;;;;;;;;;;10514322;28;20077;-77
2024/01/14 19:04:30;;;;;;;643.10;88.75;;;;;;;;;;10512955;28;20102;-78
2024/01/14 19:09:30;;;;;;;445.23;69.97;;;;;;;;;;10532977;28;20016;-80
2024/01/14 19:14:30;;;;;;;157.45;28.23;;;;;;;;;;10531448;28;20285;-78
2024/01/14 19:19:30;;;;;;;144.15;28.15;;;;;;;;;;10530582;28;20012;-80
2024/01/14 19:24:31;;;;;;;534.40;59.50;;;;;;;;;;10531305;28;20330;-77
2024/01/14 19:29:31;;;;;;;501.23;56.75;;;;;;;;;;10530322;28;20310;-76
2024/01/14 19:34:31;;;;;;;384.58;47.67;;;;;;;;;;10529118;28;20072;-75
2024/01/14 19:39:31;;;;;;;565.13;64.35;;;;;;;;;;10528820;28;20278;-75
2024/01/14 19:44:32;;;;;;;512.53;58.33;;;;;;;;;;10528633;28;20068;-74
2024/01/14 19:49:32;;;;;;;559.80;68.70;;;;;;;;;;10528722;28;20023;-73
2024/01/14 19:54:33;;;;;;;621.55;102.38;;;;;;;;;;10511284;28;20286;-75
2024/01/14 19:59:34;;;;;;;588.10;68.05;;;;;;;;;;10527562;28;20298;-74
2024/01/14 20:04:34;;;;;;;617.10;80.03;;;;;;;;;;10524750;28;20078;-74
2024/01/14 20:09:37;;;;;;;544.63;63.58;;;;;;;;;;10536125;28;20020;-77
2024/01/14 20:14:38;;;;;;;636.95;101.25;;;;;;;;;;10538812;28;20020;-77
2024/01/14 20:19:38;;;;;;;669.53;166.77;;;;;;;;;;10527007;28;20322;-76
2024/01/14 20:24:39;;;;;;;659.58;121.43;;;;;;;;;;10523038;28;20027;-78
2024/01/14 20:29:40;;;;;;;561.50;63.95;;;;;;;;;;10527411;28;20077;-78
2024/01/14 20:34:41;;;;;;;545.50;60.03;;;;;;;;;;10544590;28;20476;-77
2024/01/14 20:39:42;;;;;;;446.02;52.47;;;;;;;;;;10545158;28;20596;-78
2024/01/14 20:44:42;;;;;;;249.73;37.05;;;;;;;;;;10545174;28;20031;-76
2024/01/14 20:49:43;;;;;;;305.85;41.72;;;;;;;;;;10548328;28;20031;-76
2024/01/14 20:54:43;;;;;;;184.13;31.42;;;;;;;;;;10545434;28;20273;-76
2024/01/14 20:59:49;;;;;;;243.40;36.83;;;;;;;;;;10545622;28;20024;-75
2024/01/14 21:04:50;;;;;;;381.42;53.00;;;;;;;;;;10545102;28;20106;-78
2024/01/14 21:09:55;;;;;;;706.85;327.02;;;;;;;;;;10544921;28;20097;-75
2024/01/14 21:14:55;;;;;;;248.38;37.60;;;;;;;;;;10545232;28;20065;-75
2024/01/14 21:19:56;;;;;;;189.13;32.10;;;;;;;;;;10526457;28;20081;-76
2024/01/14 21:24:56;;;;;;;64.65;14.38;;;;;;;;;;10544062;28;20066;-76
2024/01/14 21:29:56;;;;;;;180.13;29.65;;;;;;;;;;10544046;28;20028;-75
2024/01/14 21:34:56;;;;;;;63.25;11.07;;;;;;;;;;10536166;28;20031;-76
2024/01/14 21:39:57;;;;;;;25.02;5.22;;;;;;;;;;10524262;28;20044;-75
2024/01/14 21:44:57;;;;;;;155.68;28.80;;;;;;;;;;10525395;28;20329;-76
2024/01/14 21:49:58;;;;;;;264.80;35.38;;;;;;;;;;10525448;28;20046;-76
2024/01/14 21:54:59;;;;;;;91.32;17.70;;;;;;;;;;10525349;28;20024;-76
2024/01/14 21:59:59;;;;;;;100.78;17.63;;;;;;;;;;10525424;28;20031;-76
2024/01/14 22:04:59;;;;;;;47.97;14.68;;;;;;;;;;10543487;28;20023;-76
2024/01/14 22:09:59;;;;;;;38.42;11.15;;;;;;;;;;10510928;28;20392;-76
2024/01/14 22:15:00;;;;;;;65.57;16.98;;;;;;;;;;10542454;28;20023;-76
2024/01/14 22:20:00;;;;;;;92.38;22.77;;;;;;;;;;10542575;28;20024;-77
2024/01/14 22:25:00;;;;;;;131.95;27.20;;;;;;;;;;10541905;28;20051;-76
2024/01/14 22:30:01;;;;;;;134.77;25.67;;;;;;;;;;10523708;28;20266;-76
2024/01/14 22:35:01;;;;;;;238.70;35.55;;;;;;;;;;10527849;28;20012;-76
2024/01/14 22:40:02;;;;;;;490.03;60.23;;;;;;;;;;10542143;28;20048;-77
2024/01/14 22:45:02;;;;;;;384.55;48.60;;;;;;;;;;10544682;28;20318;-77
2024/01/14 22:50:04;;;;;;;373.27;48.72;;;;;;;;;;10541301;28;20038;-78
2024/01/14 22:55:04;;;;;;;442.05;53.13;;;;;;;;;;10522798;28;20039;-77
2024/01/14 23:00:07;;;;;;;604.65;81.07;;;;;;;;;;10508997;28;20028;-78
2024/01/14 23:05:08;;;;;;;596.42;79.25;;;;;;;;;;10523566;28;20126;-78
2024/01/14 23:10:08;;;;;;;566.42;66.05;;;;;;;;;;10540356;28;20016;-78
2024/01/14 23:15:08;;;;;;;593.20;72.00;;;;;;;;;;10540120;28;20024;-77
2024/01/14 23:20:09;;;;;;;572.92;65.30;;;;;;;;;;10544136;28;20217;-76
2024/01/14 23:25:09;;;;;;;563.45;62.15;;;;;;;;;;10521958;28;20198;-77
2024/01/14 23:30:09;;;;;;;548.50;60.13;;;;;;;;;;10540065;28;20024;-78
2024/01/14 23:35:10;;;;;;;165.73;28.08;;;;;;;;;;10521830;28;20293;-77
2024/01/14 23:40:10;;;;;;;146.48;27.80;;;;;;;;;;10521634;28;20048;-78
2024/01/14 23:45:10;;;;;;;126.93;26.05;;;;;;;;;;10525548;28;20099;-76
2024/01/14 23:50:11;;;;;;;214.48;34.33;;;;;;;;;;10539079;28;20016;-75
2024/01/14 23:55:11;;;;;;;293.40;41.05;;;;;;;;;;10539196;28;20484;-76
